createdAt,value
2023-01-08T00:00:24.084Z,63.13
2023-01-08T00:00:57.079Z,62.42
2023-01-08T00:01:28.969Z,61.50
2023-01-08T00:02:01.031Z,65.43
2023-01-08T00:02:32.971Z,59.97
2023-01-08T00:03:04.951Z,61.30
2023-01-08T00:03:37.822Z,65.30
2023-01-08T00:04:10.211Z,61.22
2023-01-08T00:04:42.118Z,62.83
2023-01-08T00:05:13.958Z,60.63
2023-01-08T00:05:45.804Z,64.18
2023-01-08T00:06:21.278Z,63.20
2023-01-08T00:06:53.178Z,56.03
2023-01-08T00:07:25.032Z,55.33
2023-01-08T00:07:56.874Z,58.90
2023-01-08T00:08:29.713Z,65.82
2023-01-08T00:09:01.950Z,63.72
2023-01-08T00:09:33.818Z,57.58
2023-01-08T00:10:06.484Z,58.13
2023-01-08T00:10:39.235Z,58.97
2023-01-08T00:11:11.720Z,65.43
2023-01-08T00:11:44.482Z,55.88
2023-01-08T00:12:16.495Z,60.65
2023-01-08T00:12:48.338Z,61.55
2023-01-08T00:13:20.226Z,56.65
2023-01-08T00:13:52.114Z,62.35
2023-01-08T00:14:23.977Z,53.30
2023-01-08T00:14:55.868Z,56.53
2023-01-08T00:15:28.553Z,65.18
2023-01-08T00:16:08.539Z,60.03
2023-01-08T00:16:40.872Z,62.75
2023-01-08T00:17:13.099Z,57.75
2023-01-08T00:17:44.924Z,51.50
2023-01-08T00:18:16.857Z,59.45
2023-01-08T00:18:48.836Z,59.47
2023-01-08T00:19:20.714Z,59.30
2023-01-08T00:19:52.559Z,52.83
2023-01-08T00:20:24.809Z,56.35
2023-01-08T00:20:56.712Z,52.03
2023-01-08T00:21:29.040Z,54.28
2023-01-08T00:22:00.949Z,58.17
2023-01-08T00:22:33.176Z,61.22
2023-01-08T00:23:05.014Z,62.50
2023-01-08T00:23:36.996Z,58.28
2023-01-08T00:24:08.913Z,56.97
2023-01-08T00:24:40.757Z,60.85
2023-01-08T00:25:12.546Z,61.75
2023-01-08T00:25:44.811Z,63.40
2023-01-08T00:26:16.634Z,58.78
2023-01-08T00:26:48.480Z,60.88
2023-01-08T00:27:20.324Z,61.63
2023-01-08T00:27:52.518Z,57.42
2023-01-08T00:28:24.396Z,57.75
2023-01-08T00:28:56.331Z,54.50
2023-01-08T00:29:28.231Z,58.60
2023-01-08T00:30:00.177Z,56.65
2023-01-08T00:30:32.061Z,54.03
2023-01-08T00:31:05.281Z,53.60
2023-01-08T00:31:37.116Z,63.67
2023-01-08T00:32:08.966Z,56.60
2023-01-08T00:32:40.877Z,60.70
2023-01-08T00:33:13.622Z,62.60
2023-01-08T00:33:45.462Z,58.60
2023-01-08T00:34:17.314Z,52.53
2023-01-08T00:34:49.174Z,54.58
2023-01-08T00:35:21.017Z,59.05
2023-01-08T00:35:52.861Z,60.95
2023-01-08T00:36:24.756Z,60.85
2023-01-08T00:36:56.661Z,59.35
2023-01-08T00:37:28.874Z,52.60
2023-01-08T00:38:00.687Z,60.08
2023-01-08T00:38:32.859Z,62.92
2023-01-08T00:39:04.754Z,57.97
2023-01-08T00:39:36.652Z,55.40
2023-01-08T00:40:08.887Z,56.97
2023-01-08T00:40:40.818Z,57.60
2023-01-08T00:41:14.064Z,61.05
2023-01-08T00:41:45.907Z,56.92
2023-01-08T00:42:17.793Z,59.03
2023-01-08T00:42:49.696Z,57.35
2023-01-08T00:43:21.869Z,57.10
2023-01-08T00:43:54.000Z,55.35
2023-01-08T00:44:25.852Z,59.53
2023-01-08T00:44:57.692Z,59.35
2023-01-08T00:45:29.594Z,56.15
2023-01-08T00:46:01.722Z,55.95
2023-01-08T00:46:33.621Z,61.92
2023-01-08T00:47:05.471Z,57.40
2023-01-08T00:47:37.330Z,61.13
2023-01-08T00:48:09.786Z,58.60
2023-01-08T00:48:41.593Z,61.10
2023-01-08T00:49:13.748Z,64.15
2023-01-08T00:49:45.668Z,55.08
2023-01-08T00:50:17.729Z,58.72
2023-01-08T00:50:50.253Z,59.88
2023-01-08T00:51:22.263Z,59.10
2023-01-08T00:51:54.217Z,62.53
2023-01-08T00:52:26.165Z,59.17
2023-01-08T00:52:58.244Z,62.35
2023-01-08T00:53:30.304Z,62.92
2023-01-08T00:54:02.265Z,57.97
2023-01-08T00:54:34.559Z,60.00
2023-01-08T00:55:07.094Z,52.42
2023-01-08T00:55:38.923Z,57.90
2023-01-08T00:56:11.291Z,56.95
2023-01-08T00:56:43.113Z,57.45
2023-01-08T00:57:15.006Z,56.03
2023-01-08T00:57:46.843Z,56.78
2023-01-08T00:58:18.692Z,53.87
2023-01-08T00:58:50.565Z,55.88
2023-01-08T00:59:22.425Z,58.03
2023-01-08T00:59:54.557Z,56.60
2023-01-08T01:00:26.438Z,56.90
2023-01-08T01:00:58.856Z,62.60
2023-01-08T01:01:30.856Z,64.57
2023-01-08T01:02:02.890Z,57.40
2023-01-08T01:02:36.130Z,55.20
2023-01-08T01:03:07.959Z,60.53
2023-01-08T01:03:40.413Z,57.13
2023-01-08T01:04:12.487Z,59.72
2023-01-08T01:04:44.408Z,55.80
2023-01-08T01:05:17.421Z,57.17
2023-01-08T01:05:50.035Z,58.42
2023-01-08T01:06:21.972Z,56.08
2023-01-08T01:06:53.815Z,57.15
2023-01-08T01:07:25.832Z,55.42
2023-01-08T01:07:57.991Z,59.85
2023-01-08T01:08:29.861Z,56.35
2023-01-08T01:09:01.686Z,55.88
2023-01-08T01:09:33.553Z,66.43
2023-01-08T01:10:05.889Z,56.92
2023-01-08T01:10:39.662Z,49.22
2023-01-08T01:11:19.443Z,52.38
2023-01-08T01:11:51.273Z,59.88
2023-01-08T01:12:23.166Z,63.25
2023-01-08T01:12:54.992Z,59.80
2023-01-08T01:13:26.897Z,63.30
2023-01-08T01:13:58.790Z,56.00
2023-01-08T01:14:30.659Z,59.75
2023-01-08T01:15:02.566Z,58.38
2023-01-08T01:15:35.342Z,60.20
2023-01-08T01:16:08.819Z,54.67
2023-01-08T01:16:41.789Z,64.57
2023-01-08T01:17:14.027Z,60.78
2023-01-08T01:17:46.811Z,59.85
2023-01-08T01:18:18.636Z,51.15
2023-01-08T01:18:52.298Z,53.40
2023-01-08T01:19:24.227Z,52.10
2023-01-08T01:19:56.077Z,62.58
2023-01-08T01:20:27.923Z,58.40
2023-01-08T01:20:59.825Z,56.78
2023-01-08T01:21:33.191Z,53.05
2023-01-08T01:22:05.546Z,58.45
2023-01-08T01:22:38.556Z,54.30
2023-01-08T01:23:10.388Z,50.67
2023-01-08T01:23:42.267Z,56.30
2023-01-08T01:24:15.745Z,57.58
2023-01-08T01:24:47.629Z,63.30
2023-01-08T01:25:19.613Z,53.10
2023-01-08T01:25:51.575Z,56.15
2023-01-08T01:26:24.491Z,56.45
2023-01-08T01:26:57.560Z,57.20
2023-01-08T01:27:29.414Z,59.42
2023-01-08T01:28:01.237Z,56.78
2023-01-08T01:28:33.109Z,63.20
2023-01-08T01:29:05.325Z,63.10
2023-01-08T01:29:37.285Z,52.60
2023-01-08T01:30:09.614Z,61.65
2023-01-08T01:30:41.480Z,52.92
2023-01-08T01:31:14.348Z,56.75
2023-01-08T01:31:46.239Z,55.67
2023-01-08T01:32:18.391Z,56.50
2023-01-08T01:32:50.284Z,58.20
2023-01-08T01:33:22.170Z,60.55
2023-01-08T01:33:54.047Z,53.80
2023-01-08T01:34:25.899Z,55.85
2023-01-08T01:34:57.806Z,53.25
2023-01-08T01:35:29.654Z,54.42
2023-01-08T01:36:03.029Z,54.67
2023-01-08T01:36:34.903Z,56.35
2023-01-08T01:37:07.611Z,54.30
2023-01-08T01:37:39.743Z,56.78
2023-01-08T01:38:11.597Z,58.70
2023-01-08T01:38:48.128Z,56.47
2023-01-08T01:39:20.279Z,49.03
2023-01-08T01:39:52.138Z,50.97
2023-01-08T01:40:24.020Z,51.28
2023-01-08T01:40:56.051Z,51.67
2023-01-08T01:41:37.803Z,51.55
2023-01-08T01:42:33.547Z,49.47
2023-01-08T01:43:05.694Z,49.10
2023-01-08T01:43:43.100Z,52.88
2023-01-08T01:44:44.727Z,46.50
2023-01-08T01:45:54.223Z,48.53
2023-01-08T01:46:40.889Z,49.88
2023-01-08T01:47:21.674Z,45.17
2023-01-08T01:48:25.625Z,47.80
2023-01-08T01:49:01.510Z,50.05
2023-01-08T01:49:34.218Z,49.28
2023-01-08T01:50:12.430Z,51.40
2023-01-08T01:50:51.717Z,49.58
2023-01-08T01:51:29.094Z,45.03
2023-01-08T01:52:04.420Z,51.42
2023-01-08T01:52:45.678Z,50.05
2023-01-08T01:53:29.652Z,45.08
2023-01-08T01:54:05.339Z,45.55
2023-01-08T01:54:37.872Z,46.47
2023-01-08T01:55:12.842Z,44.53
2023-01-08T01:55:46.537Z,45.95
2023-01-08T01:56:18.414Z,47.05
2023-01-08T01:56:50.768Z,48.65
2023-01-08T01:57:23.603Z,50.58
2023-01-08T01:58:04.828Z,50.55
2023-01-08T01:58:38.045Z,44.70
2023-01-08T01:59:11.564Z,46.88
2023-01-08T01:59:45.360Z,47.88
2023-01-08T02:00:17.513Z,47.03
2023-01-08T02:00:51.096Z,52.92
2023-01-08T02:01:24.263Z,47.00
2023-01-08T02:01:58.117Z,50.47
2023-01-08T02:02:32.477Z,47.35
2023-01-08T02:03:05.995Z,51.17
2023-01-08T02:03:40.287Z,49.92
2023-01-08T02:04:13.564Z,43.95
2023-01-08T02:04:45.578Z,49.80
2023-01-08T02:05:17.707Z,45.78
2023-01-08T02:05:55.702Z,54.40
2023-01-08T02:07:00.025Z,50.97
2023-01-08T02:07:48.418Z,48.30
2023-01-08T02:08:48.142Z,54.03
2023-01-08T02:09:51.099Z,48.25
2023-01-08T02:10:52.050Z,50.47
2023-01-08T02:11:41.375Z,45.72
2023-01-08T02:12:26.553Z,51.58
2023-01-08T02:13:04.809Z,48.03
2023-01-08T02:13:40.445Z,47.17
2023-01-08T02:14:33.197Z,48.33
2023-01-08T02:15:22.145Z,52.95
2023-01-08T02:16:03.500Z,50.20
2023-01-08T02:16:38.006Z,46.13
2023-01-08T02:17:16.088Z,52.03
2023-01-08T02:18:07.865Z,53.53
2023-01-08T02:18:55.262Z,47.60
2023-01-08T02:19:29.831Z,48.13
2023-01-08T02:20:37.007Z,48.28
2023-01-08T02:21:18.364Z,55.58
2023-01-08T02:22:03.486Z,47.55
2023-01-08T02:23:16.741Z,51.95
2023-01-08T02:24:00.097Z,47.05
2023-01-08T02:24:41.197Z,54.45
2023-01-08T02:25:45.608Z,49.70
2023-01-08T02:26:26.819Z,54.10
2023-01-08T02:27:00.960Z,55.38
2023-01-08T02:27:36.143Z,50.88
2023-01-08T02:28:14.803Z,50.92
2023-01-08T02:29:01.083Z,51.70
2023-01-08T02:29:33.717Z,51.53
2023-01-08T02:30:06.275Z,59.35
2023-01-08T02:30:38.406Z,49.28
2023-01-08T02:31:10.996Z,51.33
2023-01-08T02:31:44.031Z,54.67
2023-01-08T02:32:16.459Z,49.75
2023-01-08T02:32:48.353Z,49.58
2023-01-08T02:33:20.231Z,51.33
2023-01-08T02:33:52.377Z,52.65
2023-01-08T02:34:24.252Z,51.00
2023-01-08T02:34:56.236Z,56.50
2023-01-08T02:35:44.651Z,50.20
2023-01-08T02:36:37.232Z,48.95
2023-01-08T02:37:10.085Z,51.90
2023-01-08T02:37:42.579Z,54.35
2023-01-08T02:38:17.690Z,51.92
2023-01-08T02:38:58.646Z,56.40
2023-01-08T02:39:55.126Z,52.10
2023-01-08T02:40:38.818Z,51.03
2023-01-08T02:41:12.845Z,55.60
2023-01-08T02:42:12.489Z,50.65
2023-01-08T02:43:10.763Z,52.90
2023-01-08T02:43:50.068Z,50.65
2023-01-08T02:45:02.296Z,48.70
2023-01-08T02:45:43.863Z,53.72
2023-01-08T02:46:25.904Z,52.20
2023-01-08T02:47:00.652Z,54.28
2023-01-08T02:47:38.042Z,54.33
2023-01-08T02:48:13.137Z,49.45
2023-01-08T02:48:51.672Z,48.35
2023-01-08T02:49:28.743Z,50.95
2023-01-08T02:50:09.506Z,59.40
2023-01-08T02:51:28.746Z,54.47
2023-01-08T02:52:02.846Z,57.08
2023-01-08T02:52:42.051Z,50.80
2023-01-08T02:53:19.174Z,50.72
2023-01-08T02:53:58.868Z,54.20
2023-01-08T02:54:34.579Z,50.00
2023-01-08T02:55:08.201Z,55.33
2023-01-08T02:55:43.076Z,58.35
2023-01-08T02:56:19.337Z,54.42
2023-01-08T02:57:08.291Z,49.55
2023-01-08T02:57:40.525Z,54.42
2023-01-08T02:58:13.414Z,54.17
2023-01-08T02:58:48.063Z,55.67
2023-01-08T02:59:22.589Z,54.53
2023-01-08T02:59:55.738Z,47.33
2023-01-08T03:00:28.479Z,57.13
2023-01-08T03:01:04.409Z,58.65
2023-01-08T03:01:38.713Z,48.25
2023-01-08T03:02:11.773Z,51.83
2023-01-08T03:02:44.100Z,51.78
2023-01-08T03:03:15.923Z,57.22
2023-01-08T03:03:52.447Z,55.67
2023-01-08T03:04:26.567Z,55.55
2023-01-08T03:05:06.003Z,52.75
2023-01-08T03:05:41.878Z,56.90
2023-01-08T03:06:17.768Z,57.25
2023-01-08T03:06:50.396Z,49.22
2023-01-08T03:07:22.311Z,59.03
2023-01-08T03:07:55.657Z,52.67
2023-01-08T03:08:28.914Z,59.67
2023-01-08T03:09:01.456Z,57.15
2023-01-08T03:09:33.412Z,55.60
2023-01-08T03:10:05.940Z,53.00
2023-01-08T03:10:41.623Z,52.85
2023-01-08T03:11:16.189Z,60.38
2023-01-08T03:11:57.730Z,54.10
2023-01-08T03:12:52.836Z,60.17
2023-01-08T03:13:32.101Z,56.40
2023-01-08T03:14:14.706Z,49.63
2023-01-08T03:14:54.508Z,50.17
2023-01-08T03:15:34.672Z,58.75
2023-01-08T03:16:11.802Z,62.90
2023-01-08T03:16:57.873Z,54.38
2023-01-08T03:17:39.702Z,57.55
2023-01-08T03:18:15.956Z,51.17
2023-01-08T03:18:55.784Z,54.78
2023-01-08T03:19:44.415Z,55.55
2023-01-08T03:20:20.644Z,48.78
2023-01-08T03:20:53.080Z,54.92
2023-01-08T03:21:26.599Z,53.40
2023-01-08T03:22:00.932Z,52.75
2023-01-08T03:22:34.149Z,53.45
2023-01-08T03:23:09.912Z,55.67
2023-01-08T03:23:43.251Z,60.47
2023-01-08T03:24:18.037Z,59.92
2023-01-08T03:24:53.012Z,50.08
2023-01-08T03:25:28.159Z,53.80
2023-01-08T03:26:01.674Z,51.50
2023-01-08T03:26:35.087Z,50.35
2023-01-08T03:27:14.475Z,48.90
2023-01-08T03:27:50.581Z,52.88
2023-01-08T03:28:30.597Z,53.75
2023-01-08T03:29:04.720Z,59.08
2023-01-08T03:29:39.785Z,48.63
2023-01-08T03:30:14.199Z,51.55
2023-01-08T03:30:48.514Z,51.13
2023-01-08T03:31:22.675Z,47.92
2023-01-08T03:32:03.088Z,51.28
2023-01-08T03:32:36.838Z,49.65
2023-01-08T03:33:12.127Z,51.03
2023-01-08T03:33:46.325Z,48.05
2023-01-08T03:34:21.414Z,51.10
2023-01-08T03:34:56.138Z,49.65
2023-01-08T03:35:30.733Z,52.30
2023-01-08T03:36:05.373Z,48.42
2023-01-08T03:36:40.676Z,47.45
2023-01-08T03:37:14.410Z,48.20
2023-01-08T03:37:54.251Z,46.03
2023-01-08T03:38:29.422Z,52.55
2023-01-08T03:39:07.982Z,52.40
2023-01-08T03:39:54.639Z,44.80
2023-01-08T03:40:31.783Z,52.78
2023-01-08T03:41:12.661Z,49.10
2023-01-08T03:41:46.068Z,50.75
2023-01-08T03:42:20.637Z,55.88
2023-01-08T03:42:52.733Z,50.20
2023-01-08T03:43:24.982Z,42.92
2023-01-08T03:43:57.446Z,53.70
2023-01-08T03:44:29.335Z,57.60
2023-01-08T03:45:01.677Z,51.17
2023-01-08T03:45:37.003Z,45.33
2023-01-08T03:46:14.798Z,48.38
2023-01-08T03:46:52.865Z,51.25
2023-01-08T03:47:25.606Z,48.65
2023-01-08T03:47:58.539Z,50.50
2023-01-08T03:48:33.692Z,50.30
2023-01-08T03:49:07.841Z,51.67
2023-01-08T03:49:41.771Z,48.65
2023-01-08T03:50:20.010Z,50.17
2023-01-08T03:50:51.891Z,48.35
2023-01-08T03:51:24.025Z,50.95
2023-01-08T03:51:56.349Z,52.08
2023-01-08T03:52:31.156Z,51.83
2023-01-08T03:53:03.096Z,53.17
2023-01-08T03:53:34.993Z,45.80
2023-01-08T03:54:11.684Z,47.40
2023-01-08T03:54:43.524Z,47.65
2023-01-08T03:55:15.449Z,50.83
2023-01-08T03:55:47.364Z,47.17
2023-01-08T03:56:19.307Z,47.03
2023-01-08T03:56:51.613Z,49.70
2023-01-08T03:57:23.940Z,54.20
2023-01-08T03:57:55.744Z,56.85
2023-01-08T03:58:27.825Z,51.33
2023-01-08T03:58:59.674Z,53.42
2023-01-08T03:59:31.537Z,54.67
2023-01-08T04:00:04.808Z,46.42
2023-01-08T04:00:36.996Z,54.92
2023-01-08T04:01:09.356Z,48.67
2023-01-08T04:01:41.485Z,48.33
2023-01-08T04:02:14.048Z,52.47
2023-01-08T04:02:46.071Z,48.72
2023-01-08T04:03:17.942Z,41.25
2023-01-08T04:03:49.724Z,46.95
2023-01-08T04:04:21.600Z,54.55
2023-01-08T04:04:53.914Z,53.30
2023-01-08T04:05:25.822Z,51.80
2023-01-08T04:06:00.468Z,49.17
2023-01-08T04:06:32.806Z,50.88
2023-01-08T04:07:04.906Z,48.97
2023-01-08T04:07:36.754Z,50.42
2023-01-08T04:08:08.630Z,55.05
2023-01-08T04:08:40.442Z,52.38
2023-01-08T04:09:12.530Z,58.28
2023-01-08T04:09:44.366Z,49.95
2023-01-08T04:10:16.279Z,48.20
2023-01-08T04:10:48.114Z,48.42
2023-01-08T04:11:20.017Z,45.65
2023-01-08T04:11:52.279Z,49.28
2023-01-08T04:12:24.508Z,47.80
2023-01-08T04:12:56.451Z,49.72
2023-01-08T04:13:28.304Z,44.28
2023-01-08T04:14:00.191Z,50.35
2023-01-08T04:14:32.062Z,51.37
2023-01-08T04:15:04.545Z,47.42
2023-01-08T04:15:36.415Z,46.67
2023-01-08T04:16:08.539Z,48.97
2023-01-08T04:16:40.430Z,42.40
2023-01-08T04:17:13.773Z,46.90
2023-01-08T04:17:45.684Z,43.03
2023-01-08T04:18:18.156Z,43.95
2023-01-08T04:18:50.085Z,45.92
2023-01-08T04:19:22.008Z,45.40
2023-01-08T04:19:53.903Z,47.08
2023-01-08T04:20:25.769Z,43.67
2023-01-08T04:20:57.712Z,45.92
2023-01-08T04:21:29.646Z,43.42
2023-01-08T04:22:01.484Z,43.65
2023-01-08T04:22:33.689Z,50.50
2023-01-08T04:23:05.549Z,41.58
2023-01-08T04:23:37.416Z,45.10
2023-01-08T04:24:09.534Z,44.47
2023-01-08T04:24:41.403Z,46.50
2023-01-08T04:25:13.243Z,47.05
2023-01-08T04:25:45.126Z,45.28
2023-01-08T04:26:17.048Z,43.83
2023-01-08T04:26:48.878Z,44.55
2023-01-08T04:27:20.720Z,39.45
2023-01-08T04:27:52.859Z,45.42
2023-01-08T04:28:24.952Z,47.13
2023-01-08T04:28:56.984Z,46.50
2023-01-08T04:29:28.930Z,41.53
2023-01-08T04:30:00.898Z,42.97
2023-01-08T04:30:32.772Z,47.08
2023-01-08T04:31:08.754Z,43.67
2023-01-08T04:31:40.947Z,42.70
2023-01-08T04:32:12.804Z,50.70
2023-01-08T04:32:44.667Z,44.70
2023-01-08T04:33:17.033Z,42.62
2023-01-08T04:33:49.002Z,42.62
2023-01-08T04:34:20.871Z,45.40
2023-01-08T04:34:52.809Z,45.67
2023-01-08T04:35:24.740Z,46.33
2023-01-08T04:35:56.656Z,49.70
2023-01-08T04:36:28.517Z,45.55
2023-01-08T04:37:00.749Z,47.47
2023-01-08T04:37:32.541Z,44.88
2023-01-08T04:38:04.688Z,48.10
2023-01-08T04:38:36.829Z,46.80
2023-01-08T04:39:08.947Z,42.35
2023-01-08T04:39:40.808Z,45.08
2023-01-08T04:40:12.713Z,45.40
2023-01-08T04:40:44.557Z,47.15
2023-01-08T04:41:18.488Z,45.92
2023-01-08T04:41:50.362Z,44.92
2023-01-08T04:42:22.207Z,49.42
2023-01-08T04:42:54.101Z,44.30
2023-01-08T04:43:26.522Z,49.47
2023-01-08T04:43:58.793Z,46.30
2023-01-08T04:44:31.257Z,47.88
2023-01-08T04:45:03.217Z,52.70
2023-01-08T04:45:35.039Z,52.03
2023-01-08T04:46:07.804Z,42.75
2023-01-08T04:46:39.787Z,50.42
2023-01-08T04:47:11.705Z,58.38
2023-01-08T04:47:43.564Z,54.83
2023-01-08T04:48:15.445Z,48.55
2023-01-08T04:48:47.443Z,50.88
2023-01-08T04:49:19.819Z,55.80
2023-01-08T04:49:51.697Z,55.47
2023-01-08T04:50:23.812Z,54.33
2023-01-08T04:50:58.488Z,48.42
2023-01-08T04:51:30.362Z,51.83
2023-01-08T04:52:02.211Z,45.85
2023-01-08T04:52:34.223Z,50.17
2023-01-08T04:53:06.054Z,50.65
2023-01-08T04:53:39.291Z,55.10
2023-01-08T04:54:11.138Z,52.40
2023-01-08T04:54:43.309Z,50.45
2023-01-08T04:55:15.375Z,50.60
2023-01-08T04:55:47.235Z,48.65
2023-01-08T04:56:19.092Z,49.35
2023-01-08T04:56:51.957Z,51.65
2023-01-08T04:57:23.836Z,44.80
2023-01-08T04:57:55.688Z,43.33
2023-01-08T04:58:27.502Z,49.72
2023-01-08T04:58:59.658Z,49.90
2023-01-08T04:59:31.577Z,45.95
2023-01-08T05:00:04.261Z,43.22
2023-01-08T05:00:36.775Z,48.25
2023-01-08T05:01:13.400Z,54.13
2023-01-08T05:01:45.403Z,48.95
2023-01-08T05:02:17.654Z,46.47
2023-01-08T05:02:49.792Z,46.85
2023-01-08T05:03:21.719Z,44.70
2023-01-08T05:03:59.165Z,45.05
2023-01-08T05:04:31.153Z,45.53
2023-01-08T05:05:03.415Z,46.17
2023-01-08T05:05:35.738Z,43.05
2023-01-08T05:06:08.233Z,44.92
2023-01-08T05:06:40.171Z,49.05
2023-01-08T05:07:12.247Z,46.28
2023-01-08T05:07:44.087Z,52.85
2023-01-08T05:08:15.997Z,52.40
2023-01-08T05:08:48.014Z,47.78
2023-01-08T05:09:19.917Z,45.35
2023-01-08T05:09:52.225Z,46.10
2023-01-08T05:10:24.408Z,47.03
2023-01-08T05:10:59.428Z,45.17
2023-01-08T05:11:31.430Z,42.13
2023-01-08T05:12:03.357Z,45.58
2023-01-08T05:12:35.227Z,44.72
2023-01-08T05:13:07.081Z,42.17
2023-01-08T05:13:38.937Z,45.83
2023-01-08T05:14:10.856Z,44.22
2023-01-08T05:14:42.773Z,51.95
2023-01-08T05:15:14.685Z,50.83
2023-01-08T05:15:46.842Z,44.05
2023-01-08T05:16:19.699Z,45.58
2023-01-08T05:16:51.669Z,44.00
2023-01-08T05:17:23.552Z,45.95
2023-01-08T05:18:03.074Z,46.67
2023-01-08T05:18:34.990Z,43.50
2023-01-08T05:19:06.908Z,49.28
2023-01-08T05:19:38.779Z,44.40
2023-01-08T05:20:10.981Z,43.70
2023-01-08T05:20:42.838Z,44.15
2023-01-08T05:21:15.829Z,44.05
2023-01-08T05:21:47.725Z,46.95
2023-01-08T05:22:19.582Z,43.42
2023-01-08T05:22:51.460Z,41.75
2023-01-08T05:23:23.290Z,46.30
2023-01-08T05:23:55.127Z,46.00
2023-01-08T05:24:27.007Z,45.97
2023-01-08T05:24:58.851Z,47.65
2023-01-08T05:25:30.696Z,47.62
2023-01-08T05:26:05.433Z,41.28
2023-01-08T05:26:37.670Z,42.78
2023-01-08T05:27:09.518Z,43.53
2023-01-08T05:27:41.360Z,45.25
2023-01-08T05:28:13.232Z,42.88
2023-01-08T05:28:45.196Z,46.25
2023-01-08T05:29:17.647Z,45.90
2023-01-08T05:29:49.548Z,45.83
2023-01-08T05:30:21.473Z,48.92
2023-01-08T05:30:53.775Z,50.80
2023-01-08T05:31:26.017Z,49.38
2023-01-08T05:31:58.261Z,45.42
2023-01-08T05:32:30.109Z,47.22
2023-01-08T05:33:01.965Z,40.38
2023-01-08T05:33:33.844Z,48.03
2023-01-08T05:34:06.039Z,44.28
2023-01-08T05:34:37.884Z,45.15
2023-01-08T05:35:09.884Z,43.28
2023-01-08T05:35:42.148Z,44.78
2023-01-08T05:36:14.291Z,46.22
2023-01-08T05:36:46.160Z,68.72
2023-01-08T05:37:18.497Z,72.87
2023-01-08T05:37:50.374Z,56.30
2023-01-08T05:38:22.656Z,46.13
2023-01-08T05:38:54.581Z,44.25
2023-01-08T05:39:26.430Z,47.22
2023-01-08T05:39:58.271Z,43.50
2023-01-08T05:40:30.134Z,42.83
2023-01-08T05:41:02.058Z,44.17
2023-01-08T05:41:34.110Z,42.20
2023-01-08T05:42:06.029Z,45.58
2023-01-08T05:42:38.223Z,49.65
2023-01-08T05:43:11.970Z,39.75
2023-01-08T05:43:43.860Z,45.08
2023-01-08T05:44:15.721Z,45.70
2023-01-08T05:44:47.562Z,49.55
2023-01-08T05:45:19.489Z,45.35
2023-01-08T05:45:51.364Z,46.78
2023-01-08T05:46:23.336Z,47.53
2023-01-08T05:46:55.205Z,46.47
2023-01-08T05:47:30.581Z,41.13
2023-01-08T05:48:07.354Z,45.47
2023-01-08T05:48:39.241Z,44.78
2023-01-08T05:49:11.086Z,42.62
2023-01-08T05:49:42.943Z,45.28
2023-01-08T05:50:14.922Z,49.85
2023-01-08T05:50:49.327Z,40.60
2023-01-08T05:51:21.155Z,46.88
2023-01-08T05:51:53.012Z,46.88
2023-01-08T05:52:25.246Z,49.50
2023-01-08T05:52:57.091Z,46.70
2023-01-08T05:53:31.980Z,51.50
2023-01-08T05:54:03.854Z,45.67
2023-01-08T05:54:35.704Z,47.55
2023-01-08T05:55:07.798Z,50.10
2023-01-08T05:55:39.654Z,45.67
2023-01-08T05:56:12.063Z,46.17
2023-01-08T05:56:44.022Z,47.62
2023-01-08T05:57:15.880Z,47.65
2023-01-08T05:57:47.719Z,43.95
2023-01-08T05:58:19.545Z,48.70
2023-01-08T05:58:55.117Z,46.97
2023-01-08T05:59:26.983Z,45.33
2023-01-08T05:59:58.819Z,43.80
2023-01-08T06:00:31.519Z,46.75
2023-01-08T06:01:10.522Z,46.75
2023-01-08T06:01:42.504Z,43.83
2023-01-08T06:02:14.429Z,43.67
2023-01-08T06:02:47.572Z,42.95
2023-01-08T06:03:23.335Z,46.60
2023-01-08T06:03:55.913Z,44.97
2023-01-08T06:04:27.862Z,47.33
2023-01-08T06:04:59.793Z,52.17
2023-01-08T06:05:32.778Z,51.55
2023-01-08T06:06:07.171Z,42.78
2023-01-08T06:06:39.028Z,50.97
2023-01-08T06:07:11.085Z,46.05
2023-01-08T06:07:43.182Z,46.42
2023-01-08T06:08:16.130Z,45.75
2023-01-08T06:08:47.978Z,44.38
2023-01-08T06:09:20.005Z,44.38
2023-01-08T06:09:51.846Z,46.53
2023-01-08T06:10:23.693Z,44.42
2023-01-08T06:11:00.636Z,48.00
2023-01-08T06:11:32.850Z,46.05
2023-01-08T06:12:04.820Z,43.95
2023-01-08T06:12:36.813Z,46.90
2023-01-08T06:13:09.451Z,51.95
2023-01-08T06:13:43.474Z,46.58
2023-01-08T06:14:16.708Z,47.53
2023-01-08T06:14:48.683Z,47.65
2023-01-08T06:15:20.627Z,46.75
2023-01-08T06:15:52.559Z,51.80
2023-01-08T06:16:24.458Z,49.63
2023-01-08T06:16:56.615Z,48.90
2023-01-08T06:17:28.467Z,43.92
2023-01-08T06:18:04.267Z,45.00
2023-01-08T06:18:36.292Z,44.80
2023-01-08T06:19:10.612Z,46.72
2023-01-08T06:19:42.594Z,43.13
2023-01-08T06:20:14.537Z,52.40
2023-01-08T06:20:46.440Z,42.13
2023-01-08T06:21:18.367Z,49.00
2023-01-08T06:21:50.310Z,40.72
2023-01-08T06:22:22.570Z,44.13
2023-01-08T06:22:54.564Z,45.95
2023-01-08T06:23:26.400Z,46.47
2023-01-08T06:23:58.233Z,44.85
2023-01-08T06:24:30.093Z,42.92
2023-01-08T06:25:02.245Z,45.83
2023-01-08T06:25:34.069Z,43.15
2023-01-08T06:26:05.971Z,42.90
2023-01-08T06:26:37.849Z,41.65
2023-01-08T06:27:09.732Z,43.33
2023-01-08T06:27:41.960Z,42.85
2023-01-08T06:28:13.781Z,45.00
2023-01-08T06:28:45.596Z,45.42
2023-01-08T06:29:17.459Z,46.13
2023-01-08T06:29:49.318Z,44.33
2023-01-08T06:30:21.217Z,46.35
2023-01-08T06:30:53.316Z,48.28
2023-01-08T06:31:25.301Z,46.30
2023-01-08T06:31:57.180Z,42.97
2023-01-08T06:32:29.047Z,44.78
2023-01-08T06:33:01.692Z,49.63
2023-01-08T06:33:33.817Z,43.50
2023-01-08T06:34:05.669Z,51.28
2023-01-08T06:34:37.511Z,44.13
2023-01-08T06:35:09.970Z,44.45
2023-01-08T06:35:41.792Z,42.70
2023-01-08T06:36:13.603Z,48.67
2023-01-08T06:36:45.428Z,49.85
2023-01-08T06:37:17.304Z,48.15
2023-01-08T06:37:49.126Z,47.92
2023-01-08T06:38:21.422Z,48.25
2023-01-08T06:38:53.377Z,44.85
2023-01-08T06:39:25.180Z,47.15
2023-01-08T06:39:56.990Z,43.55
2023-01-08T06:40:28.914Z,46.45
2023-01-08T06:41:08.910Z,45.67
2023-01-08T06:41:40.746Z,45.33
2023-01-08T06:42:12.628Z,43.60
2023-01-08T06:42:44.619Z,48.55
2023-01-08T06:43:17.684Z,47.80
2023-01-08T06:43:49.839Z,48.50
2023-01-08T06:44:21.726Z,46.10
2023-01-08T06:44:53.556Z,42.65
2023-01-08T06:45:25.361Z,49.47
2023-01-08T06:45:58.445Z,44.88
2023-01-08T06:46:30.528Z,48.17
2023-01-08T06:47:02.446Z,47.62
2023-01-08T06:47:34.349Z,43.45
2023-01-08T06:48:07.219Z,41.95
2023-01-08T06:48:39.098Z,44.47
2023-01-08T06:49:11.288Z,45.30
2023-01-08T06:49:43.132Z,41.75
2023-01-08T06:50:15.008Z,47.80
2023-01-08T06:50:46.828Z,47.58
2023-01-08T06:51:18.675Z,45.72
2023-01-08T06:51:50.557Z,38.78
2023-01-08T06:52:22.375Z,48.45
2023-01-08T06:52:55.152Z,49.42
2023-01-08T06:53:27.026Z,45.97
2023-01-08T06:53:58.900Z,42.08
2023-01-08T06:54:31.133Z,44.88
2023-01-08T06:55:04.899Z,43.47
2023-01-08T06:55:38.232Z,48.35
2023-01-08T06:56:11.094Z,45.17
2023-01-08T06:56:53.393Z,47.65
2023-01-08T06:57:25.750Z,46.00
2023-01-08T06:57:58.746Z,44.53
2023-01-08T06:58:30.696Z,45.38
2023-01-08T06:59:02.714Z,46.60
2023-01-08T06:59:34.874Z,44.53
2023-01-08T07:00:07.534Z,45.50
2023-01-08T07:00:39.803Z,46.67
2023-01-08T07:01:16.318Z,48.03
2023-01-08T07:01:48.711Z,43.67
2023-01-08T07:02:22.343Z,47.65
2023-01-08T07:02:55.575Z,44.95
2023-01-08T07:03:27.707Z,41.60
2023-01-08T07:03:59.639Z,46.15
2023-01-08T07:04:31.552Z,45.25
2023-01-08T07:05:04.025Z,45.42
2023-01-08T07:05:35.897Z,45.22
2023-01-08T07:06:13.013Z,42.88
2023-01-08T07:06:45.161Z,47.62
2023-01-08T07:07:17.025Z,49.00
2023-01-08T07:07:49.059Z,60.85
2023-01-08T07:08:20.886Z,57.78
2023-01-08T07:08:52.777Z,57.13
2023-01-08T07:09:24.704Z,54.35
2023-01-08T07:09:56.703Z,57.65
2023-01-08T07:10:31.230Z,51.45
2023-01-08T07:11:03.933Z,57.38
2023-01-08T07:11:35.783Z,59.35
2023-01-08T07:12:12.495Z,60.72
2023-01-08T07:12:44.322Z,52.45
2023-01-08T07:13:16.218Z,51.28
2023-01-08T07:13:48.072Z,46.40
2023-01-08T07:14:19.996Z,52.45
2023-01-08T07:14:51.863Z,50.60
2023-01-08T07:15:23.693Z,53.97
2023-01-08T07:15:56.210Z,53.15
2023-01-08T07:16:28.162Z,53.28
2023-01-08T07:17:00.127Z,52.67
2023-01-08T07:17:35.338Z,52.80
2023-01-08T07:18:08.478Z,58.78
2023-01-08T07:18:40.425Z,48.15